sensor_id;sensor_type;location;lat;lon;timestamp;P1;durP1;ratioP1;P2;durP2;ratioP2
36315;SDS011;22343;50.820;2.666;2022-09-09T00:00:49;4.67;;;2.10;;
36315;SDS011;22343;50.820;2.666;2022-09-09T00:03:27;3.80;;;2.03;;
36315;SDS011;22343;50.820;2.666;2022-09-09T00:06:24;3.97;;;2.27;;
36315;SDS011;22343;50.820;2.666;2022-09-09T00:11:45;2.40;;;2.00;;
36315;SDS011;22343;50.820;2.666;2022-09-09T00:17:36;6.23;;;2.50;;
36315;SDS011;22343;50.820;2.666;2022-09-09T00:20:24;4.93;;;2.37;;
36315;SDS011;22343;50.820;2.666;2022-09-09T00:23:10;4.97;;;2.40;;
36315;SDS011;22343;50.820;2.666;2022-09-09T00:28:25;5.47;;;2.47;;
36315;SDS011;22343;50.820;2.666;2022-09-09T00:30:53;5.63;;;2.67;;
36315;SDS011;22343;50.820;2.666;2022-09-09T00:33:24;5.70;;;2.40;;
36315;SDS011;22343;50.820;2.666;2022-09-09T00:35:56;5.07;;;2.45;;
36315;SDS011;22343;50.820;2.666;2022-09-09T00:38:34;4.90;;;2.40;;
36315;SDS011;22343;50.820;2.666;2022-09-09T00:43:57;5.60;;;2.40;;
36315;SDS011;22343;50.820;2.666;2022-09-09T00:49:32;7.27;;;2.77;;
36315;SDS011;22343;50.820;2.666;2022-09-09T00:55:03;3.97;;;2.40;;
36315;SDS011;22343;50.820;2.666;2022-09-09T00:57:35;5.53;;;2.40;;
36315;SDS011;22343;50.820;2.666;2022-09-09T01:05:27;6.13;;;2.30;;
36315;SDS011;22343;50.820;2.666;2022-09-09T01:08:01;6.90;;;2.57;;
36315;SDS011;22343;50.820;2.666;2022-09-09T01:13:26;5.10;;;2.67;;
36315;SDS011;22343;50.820;2.666;2022-09-09T01:15:57;6.20;;;2.70;;
36315;SDS011;22343;50.820;2.666;2022-09-09T01:18:27;6.07;;;2.77;;
36315;SDS011;22343;50.820;2.666;2022-09-09T01:21:04;6.03;;;2.40;;
36315;SDS011;22343;50.820;2.666;2022-09-09T01:26:43;5.80;;;2.80;;
36315;SDS011;22343;50.820;2.666;2022-09-09T01:29:13;5.57;;;2.60;;
36315;SDS011;22343;50.820;2.666;2022-09-09T01:32:00;6.50;;;2.75;;
36315;SDS011;22343;50.820;2.666;2022-09-09T01:34:36;5.57;;;2.80;;
36315;SDS011;22343;50.820;2.666;2022-09-09T01:37:08;6.30;;;2.70;;
36315;SDS011;22343;50.820;2.666;2022-09-09T01:39:37;4.57;;;2.57;;
36315;SDS011;22343;50.820;2.666;2022-09-09T01:42:07;6.53;;;3.17;;
36315;SDS011;22343;50.820;2.666;2022-09-09T01:44:36;6.50;;;2.83;;
36315;SDS011;22343;50.820;2.666;2022-09-09T01:47:05;6.18;;;2.60;;
36315;SDS011;22343;50.820;2.666;2022-09-09T01:49:33;5.70;;;2.80;;
36315;SDS011;22343;50.820;2.666;2022-09-09T01:52:00;5.70;;;2.60;;
36315;SDS011;22343;50.820;2.666;2022-09-09T01:54:29;7.53;;;2.77;;
36315;SDS011;22343;50.820;2.666;2022-09-09T02:05:39;3.97;;;2.40;;
36315;SDS011;22343;50.820;2.666;2022-09-09T02:08:15;6.60;;;2.60;;
36315;SDS011;22343;50.820;2.666;2022-09-09T02:10:50;6.60;;;2.87;;
36315;SDS011;22343;50.820;2.666;2022-09-09T02:13:22;5.17;;;2.63;;
36315;SDS011;22343;50.820;2.666;2022-09-09T02:21:34;6.23;;;2.50;;
36315;SDS011;22343;50.820;2.666;2022-09-09T02:24:05;8.53;;;3.03;;
36315;SDS011;22343;50.820;2.666;2022-09-09T02:26:40;6.30;;;2.90;;
36315;SDS011;22343;50.820;2.666;2022-09-09T02:29:19;9.10;;;3.17;;
36315;SDS011;22343;50.820;2.666;2022-09-09T02:32:03;6.70;;;2.90;;
36315;SDS011;22343;50.820;2.666;2022-09-09T02:34:35;4.23;;;2.83;;
36315;SDS011;22343;50.820;2.666;2022-09-09T02:37:04;4.53;;;2.90;;
36315;SDS011;22343;50.820;2.666;2022-09-09T02:39:33;9.37;;;3.07;;
36315;SDS011;22343;50.820;2.666;2022-09-09T02:42:01;10.00;;;3.00;;
36315;SDS011;22343;50.820;2.666;2022-09-09T02:44:30;7.35;;;3.10;;
36315;SDS011;22343;50.820;2.666;2022-09-09T02:49:44;5.40;;;2.57;;
36315;SDS011;22343;50.820;2.666;2022-09-09T02:52:26;10.00;;;3.30;;
36315;SDS011;22343;50.820;2.666;2022-09-09T02:58:13;6.83;;;3.07;;
36315;SDS011;22343;50.820;2.666;2022-09-09T03:00:47;7.60;;;3.40;;
36315;SDS011;22343;50.820;2.666;2022-09-09T03:03:15;9.02;;;3.00;;
36315;SDS011;22343;50.820;2.666;2022-09-09T03:05:46;5.90;;;3.00;;
36315;SDS011;22343;50.820;2.666;2022-09-09T03:08:14;7.88;;;2.90;;
36315;SDS011;22343;50.820;2.666;2022-09-09T03:10:42;7.17;;;2.80;;
36315;SDS011;22343;50.820;2.666;2022-09-09T03:13:09;5.77;;;3.17;;
36315;SDS011;22343;50.820;2.666;2022-09-09T03:15:36;6.90;;;2.90;;
36315;SDS011;22343;50.820;2.666;2022-09-09T03:18:04;6.17;;;3.07;;
36315;SDS011;22343;50.820;2.666;2022-09-09T03:20:32;9.13;;;3.30;;
36315;SDS011;22343;50.820;2.666;2022-09-09T03:22:59;7.37;;;3.20;;
36315;SDS011;22343;50.820;2.666;2022-09-09T03:25:26;7.97;;;3.17;;
36315;SDS011;22343;50.820;2.666;2022-09-09T03:27:55;8.50;;;3.50;;
36315;SDS011;22343;50.820;2.666;2022-09-09T03:30:23;10.43;;;3.40;;
36315;SDS011;22343;50.820;2.666;2022-09-09T03:32:51;8.60;;;3.27;;
36315;SDS011;22343;50.820;2.666;2022-09-09T03:35:19;6.77;;;3.33;;
36315;SDS011;22343;50.820;2.666;2022-09-09T03:37:47;7.30;;;3.00;;
36315;SDS011;22343;50.820;2.666;2022-09-09T03:40:13;8.03;;;3.20;;
36315;SDS011;22343;50.820;2.666;2022-09-09T03:42:40;6.20;;;2.90;;
36315;SDS011;22343;50.820;2.666;2022-09-09T03:45:08;5.57;;;3.10;;
36315;SDS011;22343;50.820;2.666;2022-09-09T03:47:37;7.30;;;3.50;;
36315;SDS011;22343;50.820;2.666;2022-09-09T03:50:05;7.50;;;3.03;;
36315;SDS011;22343;50.820;2.666;2022-09-09T03:52:36;6.53;;;3.30;;
36315;SDS011;22343;50.820;2.666;2022-09-09T03:55:05;6.13;;;2.70;;
36315;SDS011;22343;50.820;2.666;2022-09-09T03:57:33;9.77;;;3.30;;
36315;SDS011;22343;50.820;2.666;2022-09-09T04:00:06;9.20;;;3.20;;
36315;SDS011;22343;50.820;2.666;2022-09-09T04:02:34;7.23;;;3.00;;
36315;SDS011;22343;50.820;2.666;2022-09-09T04:05:01;9.53;;;3.43;;
36315;SDS011;22343;50.820;2.666;2022-09-09T04:07:29;10.23;;;3.60;;
36315;SDS011;22343;50.820;2.666;2022-09-09T04:09:56;7.03;;;3.27;;
36315;SDS011;22343;50.820;2.666;2022-09-09T04:12:23;9.57;;;3.20;;
36315;SDS011;22343;50.820;2.666;2022-09-09T04:14:49;7.97;;;3.13;;
36315;SDS011;22343;50.820;2.666;2022-09-09T04:17:16;7.20;;;3.20;;
36315;SDS011;22343;50.820;2.666;2022-09-09T04:19:44;9.70;;;3.73;;
36315;SDS011;22343;50.820;2.666;2022-09-09T04:22:11;8.03;;;3.07;;
36315;SDS011;22343;50.820;2.666;2022-09-09T04:24:37;5.93;;;3.27;;
36315;SDS011;22343;50.820;2.666;2022-09-09T04:27:03;7.90;;;3.53;;
36315;SDS011;22343;50.820;2.666;2022-09-09T04:29:30;7.47;;;3.43;;
36315;SDS011;22343;50.820;2.666;2022-09-09T04:31:58;6.23;;;3.10;;
36315;SDS011;22343;50.820;2.666;2022-09-09T04:34:25;8.10;;;3.10;;
36315;SDS011;22343;50.820;2.666;2022-09-09T04:36:52;6.67;;;3.30;;
36315;SDS011;22343;50.820;2.666;2022-09-09T04:39:19;7.10;;;3.10;;
36315;SDS011;22343;50.820;2.666;2022-09-09T04:41:47;9.10;;;3.30;;
36315;SDS011;22343;50.820;2.666;2022-09-09T04:44:14;7.87;;;3.40;;
36315;SDS011;22343;50.820;2.666;2022-09-09T04:46:42;8.87;;;3.60;;
36315;SDS011;22343;50.820;2.666;2022-09-09T04:49:08;7.60;;;3.40;;
36315;SDS011;22343;50.820;2.666;2022-09-09T04:51:35;8.03;;;3.40;;
36315;SDS011;22343;50.820;2.666;2022-09-09T04:54:02;10.03;;;3.57;;
36315;SDS011;22343;50.820;2.666;2022-09-09T04:56:30;9.20;;;3.60;;
36315;SDS011;22343;50.820;2.666;2022-09-09T04:58:57;7.93;;;3.30;;
36315;SDS011;22343;50.820;2.666;2022-09-09T05:01:25;8.43;;;3.37;;
36315;SDS011;22343;50.820;2.666;2022-09-09T05:03:53;8.87;;;3.60;;
36315;SDS011;22343;50.820;2.666;2022-09-09T05:06:21;8.93;;;3.60;;
36315;SDS011;22343;50.820;2.666;2022-09-09T05:08:48;8.40;;;3.40;;
36315;SDS011;22343;50.820;2.666;2022-09-09T05:11:21;6.60;;;3.17;;
36315;SDS011;22343;50.820;2.666;2022-09-09T05:13:51;6.83;;;3.30;;
36315;SDS011;22343;50.820;2.666;2022-09-09T05:16:17;6.27;;;3.20;;
36315;SDS011;22343;50.820;2.666;2022-09-09T05:18:45;7.57;;;3.33;;
36315;SDS011;22343;50.820;2.666;2022-09-09T05:21:17;9.67;;;3.23;;
36315;SDS011;22343;50.820;2.666;2022-09-09T05:23:45;9.87;;;3.50;;
36315;SDS011;22343;50.820;2.666;2022-09-09T05:26:14;5.63;;;3.23;;
36315;SDS011;22343;50.820;2.666;2022-09-09T05:28:42;8.50;;;3.17;;
36315;SDS011;22343;50.820;2.666;2022-09-09T05:31:10;6.47;;;3.17;;
36315;SDS011;22343;50.820;2.666;2022-09-09T05:33:40;9.03;;;3.60;;
36315;SDS011;22343;50.820;2.666;2022-09-09T05:36:11;7.10;;;3.30;;
36315;SDS011;22343;50.820;2.666;2022-09-09T05:38:44;7.50;;;3.37;;
36315;SDS011;22343;50.820;2.666;2022-09-09T05:41:12;8.27;;;3.53;;
36315;SDS011;22343;50.820;2.666;2022-09-09T05:43:41;10.90;;;3.73;;
36315;SDS011;22343;50.820;2.666;2022-09-09T05:46:13;9.63;;;3.50;;
36315;SDS011;22343;50.820;2.666;2022-09-09T05:48:41;10.30;;;3.70;;
36315;SDS011;22343;50.820;2.666;2022-09-09T05:51:10;8.47;;;3.30;;
36315;SDS011;22343;50.820;2.666;2022-09-09T05:53:46;6.50;;;3.50;;
36315;SDS011;22343;50.820;2.666;2022-09-09T05:56:17;7.83;;;3.60;;
36315;SDS011;22343;50.820;2.666;2022-09-09T05:58:44;7.83;;;3.37;;
36315;SDS011;22343;50.820;2.666;2022-09-09T06:01:16;8.70;;;3.53;;
36315;SDS011;22343;50.820;2.666;2022-09-09T06:03:44;8.03;;;3.50;;
36315;SDS011;22343;50.820;2.666;2022-09-09T06:06:13;6.93;;;3.50;;
36315;SDS011;22343;50.820;2.666;2022-09-09T06:08:44;6.43;;;3.40;;
36315;SDS011;22343;50.820;2.666;2022-09-09T06:11:15;9.27;;;3.53;;
36315;SDS011;22343;50.820;2.666;2022-09-09T06:13:44;7.20;;;3.50;;
36315;SDS011;22343;50.820;2.666;2022-09-09T06:16:13;10.23;;;3.43;;
36315;SDS011;22343;50.820;2.666;2022-09-09T06:18:42;6.90;;;3.07;;
36315;SDS011;22343;50.820;2.666;2022-09-09T06:21:20;10.00;;;3.33;;
36315;SDS011;22343;50.820;2.666;2022-09-09T06:23:48;6.10;;;3.30;;
36315;SDS011;22343;50.820;2.666;2022-09-09T06:26:19;7.07;;;3.40;;
36315;SDS011;22343;50.820;2.666;2022-09-09T06:28:47;7.37;;;3.00;;
36315;SDS011;22343;50.820;2.666;2022-09-09T06:31:17;7.53;;;3.20;;
36315;SDS011;22343;50.820;2.666;2022-09-09T06:33:48;5.50;;;2.80;;
36315;SDS011;22343;50.820;2.666;2022-09-09T06:36:17;5.53;;;3.10;;
36315;SDS011;22343;50.820;2.666;2022-09-09T06:39:02;7.90;;;3.27;;
36315;SDS011;22343;50.820;2.666;2022-09-09T06:41:31;8.77;;;3.13;;
36315;SDS011;22343;50.820;2.666;2022-09-09T06:43:58;7.60;;;3.30;;
36315;SDS011;22343;50.820;2.666;2022-09-09T06:46:25;7.10;;;3.37;;
36315;SDS011;22343;50.820;2.666;2022-09-09T06:48:53;7.00;;;3.10;;
36315;SDS011;22343;50.820;2.666;2022-09-09T06:51:26;8.27;;;3.43;;
36315;SDS011;22343;50.820;2.666;2022-09-09T06:53:54;7.87;;;3.60;;
36315;SDS011;22343;50.820;2.666;2022-09-09T06:56:22;7.87;;;3.20;;
36315;SDS011;22343;50.820;2.666;2022-09-09T06:58:51;5.63;;;3.03;;
36315;SDS011;22343;50.820;2.666;2022-09-09T07:01:18;5.67;;;3.40;;
36315;SDS011;22343;50.820;2.666;2022-09-09T07:03:46;5.80;;;3.00;;
36315;SDS011;22343;50.820;2.666;2022-09-09T07:06:16;5.63;;;3.30;;
36315;SDS011;22343;50.820;2.666;2022-09-09T07:08:56;5.23;;;3.10;;
36315;SDS011;22343;50.820;2.666;2022-09-09T07:11:25;5.70;;;2.93;;
36315;SDS011;22343;50.820;2.666;2022-09-09T07:13:54;7.17;;;3.17;;
36315;SDS011;22343;50.820;2.666;2022-09-09T07:16:22;3.97;;;3.00;;
36315;SDS011;22343;50.820;2.666;2022-09-09T07:18:53;5.93;;;3.30;;
36315;SDS011;22343;50.820;2.666;2022-09-09T07:21:25;6.17;;;3.30;;
36315;SDS011;22343;50.820;2.666;2022-09-09T07:23:53;5.67;;;3.10;;
36315;SDS011;22343;50.820;2.666;2022-09-09T07:26:20;5.47;;;3.10;;
36315;SDS011;22343;50.820;2.666;2022-09-09T07:28:48;5.53;;;3.20;;
36315;SDS011;22343;50.820;2.666;2022-09-09T07:31:16;6.73;;;3.00;;
36315;SDS011;22343;50.820;2.666;2022-09-09T07:33:46;5.20;;;3.20;;
36315;SDS011;22343;50.820;2.666;2022-09-09T07:38:44;6.17;;;3.20;;
36315;SDS011;22343;50.820;2.666;2022-09-09T07:41:13;5.33;;;3.03;;
36315;SDS011;22343;50.820;2.666;2022-09-09T07:43:45;5.50;;;3.07;;
36315;SDS011;22343;50.820;2.666;2022-09-09T07:46:13;5.00;;;3.10;;
36315;SDS011;22343;50.820;2.666;2022-09-09T07:48:44;5.77;;;3.10;;
36315;SDS011;22343;50.820;2.666;2022-09-09T07:51:12;4.63;;;2.97;;
36315;SDS011;22343;50.820;2.666;2022-09-09T07:53:42;5.60;;;3.23;;
36315;SDS011;22343;50.820;2.666;2022-09-09T07:56:10;4.83;;;2.93;;
36315;SDS011;22343;50.820;2.666;2022-09-09T07:58:37;4.80;;;3.10;;
36315;SDS011;22343;50.820;2.666;2022-09-09T08:01:12;6.37;;;3.20;;
36315;SDS011;22343;50.820;2.666;2022-09-09T08:03:44;5.70;;;3.30;;
36315;SDS011;22343;50.820;2.666;2022-09-09T08:06:10;5.87;;;3.23;;
36315;SDS011;22343;50.820;2.666;2022-09-09T08:08:38;3.65;;;2.97;;
36315;SDS011;22343;50.820;2.666;2022-09-09T08:11:09;4.38;;;2.85;;
36315;SDS011;22343;50.820;2.666;2022-09-09T08:13:38;7.03;;;3.07;;
36315;SDS011;22343;50.820;2.666;2022-09-09T08:16:17;4.23;;;2.90;;
36315;SDS011;22343;50.820;2.666;2022-09-09T08:18:51;5.43;;;2.85;;
36315;SDS011;22343;50.820;2.666;2022-09-09T08:21:20;6.60;;;3.10;;
36315;SDS011;22343;50.820;2.666;2022-09-09T08:23:52;4.55;;;2.58;;
36315;SDS011;22343;50.820;2.666;2022-09-09T08:26:24;6.13;;;2.75;;
36315;SDS011;22343;50.820;2.666;2022-09-09T08:28:56;4.60;;;2.90;;
36315;SDS011;22343;50.820;2.666;2022-09-09T08:31:30;4.63;;;2.80;;
36315;SDS011;22343;50.820;2.666;2022-09-09T08:34:01;3.53;;;2.40;;
36315;SDS011;22343;50.820;2.666;2022-09-09T08:36:31;5.07;;;2.40;;
36315;SDS011;22343;50.820;2.666;2022-09-09T08:39:00;3.63;;;2.50;;
36315;SDS011;22343;50.820;2.666;2022-09-09T08:44:41;4.53;;;2.13;;
36315;SDS011;22343;50.820;2.666;2022-09-09T08:50:38;5.72;;;2.25;;
36315;SDS011;22343;50.820;2.666;2022-09-09T08:55:45;3.75;;;1.98;;
36315;SDS011;22343;50.820;2.666;2022-09-09T08:58:35;3.10;;;2.00;;
36315;SDS011;22343;50.820;2.666;2022-09-09T09:04:29;2.40;;;1.90;;
36315;SDS011;22343;50.820;2.666;2022-09-09T09:13:11;2.47;;;1.73;;
36315;SDS011;22343;50.820;2.666;2022-09-09T09:15:42;2.60;;;1.85;;
36315;SDS011;22343;50.820;2.666;2022-09-09T09:18:12;2.35;;;1.90;;
36315;SDS011;22343;50.820;2.666;2022-09-09T09:20:49;4.10;;;2.17;;
36315;SDS011;22343;50.820;2.666;2022-09-09T09:23:25;4.03;;;2.00;;
36315;SDS011;22343;50.820;2.666;2022-09-09T09:25:57;3.25;;;2.10;;
36315;SDS011;22343;50.820;2.666;2022-09-09T09:28:28;3.08;;;2.03;;
36315;SDS011;22343;50.820;2.666;2022-09-09T09:31:11;3.88;;;2.05;;
36315;SDS011;22343;50.820;2.666;2022-09-09T09:33:47;3.95;;;2.15;;
36315;SDS011;22343;50.820;2.666;2022-09-09T09:39:39;2.72;;;1.73;;
36315;SDS011;22343;50.820;2.666;2022-09-09T09:42:16;2.22;;;1.90;;
36315;SDS011;22343;50.820;2.666;2022-09-09T09:44:43;2.28;;;1.67;;
36315;SDS011;22343;50.820;2.666;2022-09-09T09:47:19;4.00;;;1.80;;
36315;SDS011;22343;50.820;2.666;2022-09-09T09:49:57;2.85;;;1.70;;
36315;SDS011;22343;50.820;2.666;2022-09-09T09:52:30;2.92;;;1.70;;
36315;SDS011;22343;50.820;2.666;2022-09-09T09:54:57;3.28;;;1.85;;
36315;SDS011;22343;50.820;2.666;2022-09-09T09:57:29;6.88;;;1.90;;
36315;SDS011;22343;50.820;2.666;2022-09-09T10:00:03;2.72;;;1.75;;
36315;SDS011;22343;50.820;2.666;2022-09-09T10:02:41;3.35;;;1.90;;
36315;SDS011;22343;50.820;2.666;2022-09-09T10:05:19;5.55;;;2.00;;
36315;SDS011;22343;50.820;2.666;2022-09-09T10:08:11;3.90;;;2.13;;
36315;SDS011;22343;50.820;2.666;2022-09-09T10:17:10;4.95;;;2.10;;
36315;SDS011;22343;50.820;2.666;2022-09-09T10:19:26;8.75;;;2.58;;
36315;SDS011;22343;50.820;2.666;2022-09-09T10:31:00;2.90;;;1.90;;
36315;SDS011;22343;50.820;2.666;2022-09-09T10:36:40;4.43;;;2.15;;
36315;SDS011;22343;50.820;2.666;2022-09-09T10:45:07;4.45;;;2.17;;
36315;SDS011;22343;50.820;2.666;2022-09-09T10:50:55;4.05;;;1.90;;
36315;SDS011;22343;50.820;2.666;2022-09-09T10:53:36;3.30;;;1.95;;
36315;SDS011;22343;50.820;2.666;2022-09-09T10:56:10;4.80;;;2.00;;
36315;SDS011;22343;50.820;2.666;2022-09-09T10:58:42;3.50;;;2.25;;
36315;SDS011;22343;50.820;2.666;2022-09-09T11:01:14;4.97;;;2.00;;
36315;SDS011;22343;50.820;2.666;2022-09-09T11:03:43;6.85;;;2.40;;
36315;SDS011;22343;50.820;2.666;2022-09-09T11:06:19;6.35;;;2.35;;
36315;SDS011;22343;50.820;2.666;2022-09-09T11:08:47;5.65;;;2.28;;
36315;SDS011;22343;50.820;2.666;2022-09-09T11:11:22;4.82;;;2.33;;
36315;SDS011;22343;50.820;2.666;2022-09-09T11:14:05;5.25;;;2.30;;
36315;SDS011;22343;50.820;2.666;2022-09-09T11:16:42;4.88;;;2.22;;
36315;SDS011;22343;50.820;2.666;2022-09-09T11:22:02;4.63;;;2.53;;
36315;SDS011;22343;50.820;2.666;2022-09-09T11:27:20;4.82;;;2.50;;
36315;SDS011;22343;50.820;2.666;2022-09-09T11:32:34;5.28;;;2.45;;
36315;SDS011;22343;50.820;2.666;2022-09-09T11:40:57;4.85;;;2.58;;
36315;SDS011;22343;50.820;2.666;2022-09-09T11:43:29;3.70;;;2.20;;
36315;SDS011;22343;50.820;2.666;2022-09-09T11:45:58;3.83;;;2.40;;
36315;SDS011;22343;50.820;2.666;2022-09-09T11:48:57;5.18;;;2.60;;
36315;SDS011;22343;50.820;2.666;2022-09-09T11:51:26;3.55;;;2.45;;
36315;SDS011;22343;50.820;2.666;2022-09-09T11:53:58;6.45;;;2.97;;
36315;SDS011;22343;50.820;2.666;2022-09-09T11:56:29;3.58;;;2.50;;
36315;SDS011;22343;50.820;2.666;2022-09-09T11:58:58;3.25;;;2.13;;
36315;SDS011;22343;50.820;2.666;2022-09-09T12:01:30;3.55;;;1.90;;
36315;SDS011;22343;50.820;2.666;2022-09-09T12:04:06;3.00;;;1.92;;
36315;SDS011;22343;50.820;2.666;2022-09-09T12:06:46;2.50;;;1.90;;
36315;SDS011;22343;50.820;2.666;2022-09-09T12:14:38;2.75;;;1.55;;
36315;SDS011;22343;50.820;2.666;2022-09-09T12:19:38;3.45;;;1.95;;
36315;SDS011;22343;50.820;2.666;2022-09-09T12:22:07;3.42;;;1.90;;
36315;SDS011;22343;50.820;2.666;2022-09-09T12:24:43;2.90;;;1.90;;
36315;SDS011;22343;50.820;2.666;2022-09-09T12:27:17;3.83;;;2.03;;
36315;SDS011;22343;50.820;2.666;2022-09-09T12:30:03;3.55;;;2.00;;
36315;SDS011;22343;50.820;2.666;2022-09-09T12:32:36;3.03;;;1.83;;
36315;SDS011;22343;50.820;2.666;2022-09-09T12:35:11;2.75;;;1.70;;
36315;SDS011;22343;50.820;2.666;2022-09-09T12:37:46;2.00;;;1.80;;
36315;SDS011;22343;50.820;2.666;2022-09-09T12:40:19;2.95;;;1.73;;
36315;SDS011;22343;50.820;2.666;2022-09-09T12:42:47;3.15;;;2.00;;
36315;SDS011;22343;50.820;2.666;2022-09-09T12:45:24;5.72;;;2.17;;
36315;SDS011;22343;50.820;2.666;2022-09-09T12:47:58;1.92;;;1.80;;
36315;SDS011;22343;50.820;2.666;2022-09-09T12:50:30;3.55;;;1.90;;
36315;SDS011;22343;50.820;2.666;2022-09-09T12:52:58;3.90;;;1.85;;
36315;SDS011;22343;50.820;2.666;2022-09-09T12:55:30;2.45;;;1.98;;
36315;SDS011;22343;50.820;2.666;2022-09-09T12:57:59;4.57;;;1.90;;
36315;SDS011;22343;50.820;2.666;2022-09-09T13:00:32;3.33;;;1.92;;
36315;SDS011;22343;50.820;2.666;2022-09-09T13:03:00;2.72;;;2.00;;
36315;SDS011;22343;50.820;2.666;2022-09-09T13:05:28;4.53;;;1.98;;
36315;SDS011;22343;50.820;2.666;2022-09-09T13:08:05;2.45;;;1.90;;
36315;SDS011;22343;50.820;2.666;2022-09-09T13:10:36;2.05;;;1.70;;
36315;SDS011;22343;50.820;2.666;2022-09-09T13:13:15;3.70;;;1.92;;
36315;SDS011;22343;50.820;2.666;2022-09-09T13:15:52;3.03;;;1.80;;
36315;SDS011;22343;50.820;2.666;2022-09-09T13:18:21;3.70;;;1.80;;
36315;SDS011;22343;50.820;2.666;2022-09-09T13:20:49;2.20;;;2.00;;
36315;SDS011;22343;50.820;2.666;2022-09-09T13:23:15;2.15;;;1.70;;
36315;SDS011;22343;50.820;2.666;2022-09-09T13:25:52;2.38;;;1.63;;
36315;SDS011;22343;50.820;2.666;2022-09-09T13:28:20;5.78;;;1.80;;
36315;SDS011;22343;50.820;2.666;2022-09-09T13:30:58;2.67;;;1.90;;
36315;SDS011;22343;50.820;2.666;2022-09-09T13:33:29;3.25;;;1.90;;
36315;SDS011;22343;50.820;2.666;2022-09-09T13:35:57;3.15;;;2.20;;
36315;SDS011;22343;50.820;2.666;2022-09-09T13:38:32;2.65;;;1.90;;
36315;SDS011;22343;50.820;2.666;2022-09-09T13:41:02;2.35;;;2.10;;
36315;SDS011;22343;50.820;2.666;2022-09-09T13:43:45;3.38;;;2.20;;
36315;SDS011;22343;50.820;2.666;2022-09-09T13:46:23;4.88;;;2.30;;
36315;SDS011;22343;50.820;2.666;2022-09-09T13:51:35;4.18;;;2.67;;
36315;SDS011;22343;50.820;2.666;2022-09-09T13:54:06;3.33;;;2.58;;
36315;SDS011;22343;50.820;2.666;2022-09-09T13:56:35;3.33;;;2.40;;
36315;SDS011;22343;50.820;2.666;2022-09-09T13:59:03;4.88;;;3.10;;
36315;SDS011;22343;50.820;2.666;2022-09-09T14:01:30;4.35;;;2.70;;
36315;SDS011;22343;50.820;2.666;2022-09-09T14:03:56;4.10;;;2.70;;
36315;SDS011;22343;50.820;2.666;2022-09-09T14:06:22;4.47;;;2.80;;
36315;SDS011;22343;50.820;2.666;2022-09-09T14:08:50;5.38;;;2.65;;
36315;SDS011;22343;50.820;2.666;2022-09-09T14:11:16;4.75;;;2.83;;
36315;SDS011;22343;50.820;2.666;2022-09-09T14:13:42;6.05;;;3.20;;
36315;SDS011;22343;50.820;2.666;2022-09-09T14:16:09;5.20;;;3.50;;
36315;SDS011;22343;50.820;2.666;2022-09-09T14:18:35;6.95;;;3.28;;
36315;SDS011;22343;50.820;2.666;2022-09-09T14:21:01;8.52;;;3.40;;
36315;SDS011;22343;50.820;2.666;2022-09-09T14:23:28;6.35;;;4.00;;
36315;SDS011;22343;50.820;2.666;2022-09-09T14:25:55;8.65;;;4.30;;
36315;SDS011;22343;50.820;2.666;2022-09-09T14:28:21;5.25;;;3.85;;
36315;SDS011;22343;50.820;2.666;2022-09-09T14:30:47;5.93;;;4.25;;
36315;SDS011;22343;50.820;2.666;2022-09-09T14:33:14;8.88;;;4.20;;
36315;SDS011;22343;50.820;2.666;2022-09-09T14:35:41;8.15;;;3.90;;
36315;SDS011;22343;50.820;2.666;2022-09-09T14:38:08;8.18;;;4.20;;
36315;SDS011;22343;50.820;2.666;2022-09-09T14:40:35;8.00;;;4.00;;
36315;SDS011;22343;50.820;2.666;2022-09-09T14:43:02;4.40;;;3.17;;
36315;SDS011;22343;50.820;2.666;2022-09-09T14:45:28;5.55;;;2.90;;
36315;SDS011;22343;50.820;2.666;2022-09-09T14:47:54;5.93;;;2.97;;
36315;SDS011;22343;50.820;2.666;2022-09-09T14:50:21;4.78;;;2.70;;
36315;SDS011;22343;50.820;2.666;2022-09-09T14:52:48;5.15;;;2.65;;
36315;SDS011;22343;50.820;2.666;2022-09-09T14:55:14;3.97;;;2.50;;
36315;SDS011;22343;50.820;2.666;2022-09-09T14:57:41;4.93;;;2.30;;
36315;SDS011;22343;50.820;2.666;2022-09-09T15:00:08;4.53;;;2.60;;
36315;SDS011;22343;50.820;2.666;2022-09-09T15:02:34;5.97;;;2.67;;
36315;SDS011;22343;50.820;2.666;2022-09-09T15:05:00;4.90;;;2.60;;
36315;SDS011;22343;50.820;2.666;2022-09-09T15:07:27;4.68;;;2.10;;
36315;SDS011;22343;50.820;2.666;2022-09-09T15:09:54;3.60;;;2.25;;
36315;SDS011;22343;50.820;2.666;2022-09-09T15:12:20;3.58;;;2.22;;
36315;SDS011;22343;50.820;2.666;2022-09-09T15:14:46;3.22;;;2.20;;
36315;SDS011;22343;50.820;2.666;2022-09-09T15:17:13;4.25;;;2.05;;
36315;SDS011;22343;50.820;2.666;2022-09-09T15:19:40;4.22;;;2.20;;
36315;SDS011;22343;50.820;2.666;2022-09-09T15:22:07;4.13;;;2.00;;
36315;SDS011;22343;50.820;2.666;2022-09-09T15:24:34;5.28;;;2.20;;
36315;SDS011;22343;50.820;2.666;2022-09-09T15:27:00;5.05;;;2.40;;
36315;SDS011;22343;50.820;2.666;2022-09-09T15:29:27;6.13;;;2.60;;
36315;SDS011;22343;50.820;2.666;2022-09-09T15:31:53;5.03;;;2.10;;
36315;SDS011;22343;50.820;2.666;2022-09-09T15:34:20;6.47;;;2.47;;
36315;SDS011;22343;50.820;2.666;2022-09-09T15:36:46;6.10;;;2.65;;
36315;SDS011;22343;50.820;2.666;2022-09-09T15:39:13;6.13;;;2.50;;
36315;SDS011;22343;50.820;2.666;2022-09-09T15:41:44;4.25;;;2.35;;
36315;SDS011;22343;50.820;2.666;2022-09-09T15:44:12;5.53;;;2.65;;
36315;SDS011;22343;50.820;2.666;2022-09-09T15:46:39;8.10;;;2.78;;
36315;SDS011;22343;50.820;2.666;2022-09-09T15:49:13;3.92;;;2.10;;
36315;SDS011;22343;50.820;2.666;2022-09-09T15:51:55;4.32;;;2.28;;
36315;SDS011;22343;50.820;2.666;2022-09-09T15:54:23;5.10;;;2.20;;
36315;SDS011;22343;50.820;2.666;2022-09-09T15:56:52;4.82;;;2.33;;
36315;SDS011;22343;50.820;2.666;2022-09-09T15:59:24;5.40;;;2.17;;
36315;SDS011;22343;50.820;2.666;2022-09-09T16:01:51;4.95;;;2.40;;
36315;SDS011;22343;50.820;2.666;2022-09-09T16:04:18;6.80;;;2.28;;
36315;SDS011;22343;50.820;2.666;2022-09-09T16:06:54;5.70;;;2.20;;
36315;SDS011;22343;50.820;2.666;2022-09-09T16:09:30;3.95;;;2.17;;
36315;SDS011;22343;50.820;2.666;2022-09-09T16:11:57;8.02;;;2.35;;
36315;SDS011;22343;50.820;2.666;2022-09-09T16:14:24;4.88;;;2.13;;
36315;SDS011;22343;50.820;2.666;2022-09-09T16:16:53;6.50;;;2.22;;
36315;SDS011;22343;50.820;2.666;2022-09-09T16:19:19;6.35;;;2.67;;
36315;SDS011;22343;50.820;2.666;2022-09-09T16:21:46;4.47;;;2.13;;
36315;SDS011;22343;50.820;2.666;2022-09-09T16:24:14;6.53;;;2.63;;
36315;SDS011;22343;50.820;2.666;2022-09-09T16:26:42;5.20;;;2.60;;
36315;SDS011;22343;50.820;2.666;2022-09-09T16:29:12;10.95;;;2.80;;
36315;SDS011;22343;50.820;2.666;2022-09-09T16:31:39;9.00;;;3.30;;
36315;SDS011;22343;50.820;2.666;2022-09-09T16:34:06;5.88;;;2.67;;
36315;SDS011;22343;50.820;2.666;2022-09-09T16:36:34;7.82;;;3.05;;
36315;SDS011;22343;50.820;2.666;2022-09-09T16:39:02;4.20;;;2.40;;
36315;SDS011;22343;50.820;2.666;2022-09-09T16:41:30;4.28;;;2.28;;
36315;SDS011;22343;50.820;2.666;2022-09-09T16:44:00;6.72;;;2.35;;
36315;SDS011;22343;50.820;2.666;2022-09-09T16:46:32;4.03;;;2.00;;
36315;SDS011;22343;50.820;2.666;2022-09-09T16:49:04;5.20;;;2.00;;
36315;SDS011;22343;50.820;2.666;2022-09-09T16:51:35;8.50;;;3.45;;
36315;SDS011;22343;50.820;2.666;2022-09-09T16:54:04;6.00;;;2.10;;
36315;SDS011;22343;50.820;2.666;2022-09-09T16:56:33;6.85;;;2.00;;
36315;SDS011;22343;50.820;2.666;2022-09-09T16:59:04;6.25;;;2.10;;
36315;SDS011;22343;50.820;2.666;2022-09-09T17:01:32;5.03;;;2.10;;
36315;SDS011;22343;50.820;2.666;2022-09-09T17:04:01;5.30;;;2.33;;
36315;SDS011;22343;50.820;2.666;2022-09-09T17:06:28;7.03;;;2.40;;
36315;SDS011;22343;50.820;2.666;2022-09-09T17:08:59;8.30;;;2.88;;
36315;SDS011;22343;50.820;2.666;2022-09-09T17:11:28;5.20;;;2.80;;
36315;SDS011;22343;50.820;2.666;2022-09-09T17:13:56;9.30;;;3.17;;